Time;durP1;ratioP1;P1;durP2;ratioP2;P2;SDS_P1;SDS_P2;PMS_P1;PMS_P2;Temp;Humidity;BMP_temperature;BMP_pressure;BME280_temperature;BME280_humidity;BME280_pressure;Samples;Min_cycle;Max_cycle;Signal;HPM_P1;HPM_P2
2023/07/21 00:00:34;;;;;;;3.60;2.30;;;;;;;15.18;74.17;96426.27;108080;1281;22541;-75
2023/07/21 00:03:25;;;;;;;4.20;2.40;;;;;;;15.18;74.05;96429.20;108027;1281;23262;-75
2023/07/21 00:05:57;;;;;;;3.30;2.40;;;;;;;15.16;74.15;96424.02;108056;1281;22539;-75
2023/07/21 00:08:29;;;;;;;2.60;2.10;;;;;;;15.17;73.95;96421.13;108029;1274;22528;-75
2023/07/21 00:11:06;;;;;;;3.40;2.40;;;;;;;15.16;74.03;96422.22;108038;1281;22531;-75
2023/07/21 00:13:38;;;;;;;4.40;2.20;;;;;;;15.19;74.25;96422.88;108009;1281;22575;-75
2023/07/21 00:16:09;;;;;;;2.90;2.30;;;;;;;15.18;74.09;96426.38;107980;1281;22523;-75
2023/07/21 00:18:41;;;;;;;4.50;2.30;;;;;;;15.16;73.96;96428.88;108056;1281;22533;-74
2023/07/21 00:21:13;;;;;;;3.60;2.20;;;;;;;15.15;73.97;96424.95;108059;1274;22821;-75
2023/07/21 00:23:47;;;;;;;2.20;1.80;;;;;;;15.14;73.93;96425.30;107978;1281;24250;-75
2023/07/21 00:26:24;;;;;;;2.80;2.00;;;;;;;15.11;73.66;96423.83;108019;1274;22524;-74
2023/07/21 00:28:57;;;;;;;3.40;2.10;;;;;;;15.08;73.68;96423.48;108018;1274;22566;-75
2023/07/21 00:31:31;;;;;;;3.30;2.00;;;;;;;15.08;73.70;96427.91;108010;1281;22553;-75
2023/07/21 00:34:04;;;;;;;2.80;1.80;;;;;;;15.09;73.71;96425.45;108075;1281;22574;-74
2023/07/21 00:36:35;;;;;;;3.00;2.10;;;;;;;15.10;73.68;96430.61;108011;1277;24293;-75
2023/07/21 00:39:08;;;;;;;2.50;2.00;;;;;;;15.13;73.70;96423.70;108036;1274;22524;-75
2023/07/21 00:41:42;;;;;;;2.60;2.20;;;;;;;15.16;73.59;96423.29;107986;1281;25376;-75
2023/07/21 00:44:14;;;;;;;3.10;2.10;;;;;;;15.17;73.55;96425.65;108064;1274;23196;-75
2023/07/21 00:46:46;;;;;;;2.90;1.90;;;;;;;15.18;73.67;96424.23;107987;1274;22528;-75
2023/07/21 00:49:19;;;;;;;3.10;2.50;;;;;;;15.16;73.48;96422.91;108086;1274;22532;-74
2023/07/21 00:51:52;;;;;;;2.50;1.90;;;;;;;15.14;73.56;96423.07;108050;1281;25881;-75
2023/07/21 00:54:24;;;;;;;2.60;2.00;;;;;;;15.12;73.46;96421.77;108090;1281;22556;-75
2023/07/21 00:56:58;;;;;;;4.20;2.10;;;;;;;15.12;73.59;96421.47;108020;1275;22542;-75
2023/07/21 00:59:30;;;;;;;2.60;2.00;;;;;;;15.12;73.73;96417.80;108019;1281;22556;-74
2023/07/21 01:02:02;;;;;;;2.60;2.20;;;;;;;15.11;73.55;96411.33;108017;1274;22745;-75
2023/07/21 01:04:37;;;;;;;3.00;2.50;;;;;;;15.09;73.50;96414.09;108015;1281;22515;-75
2023/07/21 01:07:10;;;;;;;3.60;2.10;;;;;;;15.07;73.54;96407.39;108005;1281;22527;-74
2023/07/21 01:09:43;;;;;;;3.00;2.30;;;;;;;15.05;73.55;96406.30;108007;1274;25298;-75
2023/07/21 01:12:16;;;;;;;2.70;2.20;;;;;;;15.00;73.46;96405.17;107946;1274;22524;-75
2023/07/21 01:14:48;;;;;;;4.80;2.20;;;;;;;14.92;73.52;96398.99;107999;1263;25560;-75
2023/07/21 01:17:24;;;;;;;2.80;2.00;;;;;;;14.90;73.68;96398.52;108016;1275;25288;-75
2023/07/21 01:20:00;;;;;;;3.80;2.10;;;;;;;14.91;73.70;96396.45;107983;1281;22540;-75
2023/07/21 01:22:37;;;;;;;3.00;2.30;;;;;;;14.91;73.72;96399.71;108035;1281;23678;-74
2023/07/21 01:25:17;;;;;;;4.60;2.20;;;;;;;14.91;73.75;96393.20;107999;1281;25298;-75
2023/07/21 01:27:48;;;;;;;;;;;;;;;14.88;73.72;96394.77;108034;1281;22518;-74
2023/07/21 01:30:22;;;;;;;3.20;2.20;;;;;;;14.82;73.67;96397.04;108020;1274;22511;-74
2023/07/21 01:32:57;;;;;;;2.40;2.20;;;;;;;14.78;73.71;96391.91;107982;1274;22750;-75
2023/07/21 01:35:32;;;;;;;2.10;1.90;;;;;;;14.77;73.64;96388.14;108008;1274;23752;-75
2023/07/21 01:38:05;;;;;;;3.50;2.60;;;;;;;14.76;73.57;96381.77;107969;1281;24288;-75
2023/07/21 01:40:39;;;;;;;2.50;2.10;;;;;;;14.77;73.63;96385.64;108002;1281;24902;-75
2023/07/21 01:43:11;;;;;;;3.00;1.90;;;;;;;14.76;73.58;96387.52;108007;1276;22527;-75
2023/07/21 01:45:44;;;;;;;3.80;2.20;;;;;;;14.75;73.51;96392.32;108011;1281;22527;-75
2023/07/21 01:48:15;;;;;;;3.30;2.40;;;;;;;14.73;73.64;96390.97;107992;1281;22553;-74
2023/07/21 01:50:49;;;;;;;2.70;2.00;;;;;;;14.74;73.65;96385.13;107989;1274;22533;-75
2023/07/21 01:53:29;;;;;;;3.20;2.00;;;;;;;14.73;73.65;96380.36;107992;1281;22533;-74
2023/07/21 01:56:07;;;;;;;3.60;2.00;;;;;;;14.71;73.71;96383.73;108069;1281;22547;-75
2023/07/21 01:58:43;;;;;;;3.50;2.10;;;;;;;14.71;73.68;96387.30;107964;1281;22537;-75
2023/07/21 02:01:17;;;;;;;5.10;2.10;;;;;;;14.70;73.53;96388.62;107997;1281;22524;-75
2023/07/21 02:03:49;;;;;;;4.00;2.30;;;;;;;14.70;73.54;96390.81;107969;1282;24286;-74
2023/07/21 02:06:21;;;;;;;4.90;2.20;;;;;;;14.69;73.42;96390.30;107994;1274;22521;-74
2023/07/21 02:08:53;;;;;;;8.20;2.90;;;;;;;14.68;73.36;96395.36;107974;1275;22511;-75
2023/07/21 02:11:25;;;;;;;4.00;2.60;;;;;;;14.64;73.16;96392.73;107993;1281;22530;-75
2023/07/21 02:13:56;;;;;;;2.80;2.00;;;;;;;14.62;73.26;96389.89;108037;1274;22568;-75
2023/07/21 02:16:30;;;;;;;3.60;1.80;;;;;;;14.62;73.15;96383.77;107968;1281;22535;-75
2023/07/21 02:19:02;;;;;;;4.00;2.40;;;;;;;14.62;73.12;96388.58;107978;1281;22525;-74
2023/07/21 02:21:34;;;;;;;3.40;1.60;;;;;;;14.62;73.06;96387.77;108012;1281;25433;-74
2023/07/21 02:24:08;;;;;;;2.20;2.00;;;;;;;14.60;72.90;96387.39;108009;1281;22746;-75
2023/07/21 02:26:40;;;;;;;3.00;2.10;;;;;;;14.59;72.98;96393.13;108077;1281;22523;-75
2023/07/21 02:29:11;;;;;;;2.30;1.80;;;;;;;14.56;72.91;96392.98;108038;1281;22552;-74
2023/07/21 02:31:44;;;;;;;5.30;2.50;;;;;;;14.54;72.83;96394.50;107988;1281;22544;-74
2023/07/21 02:34:15;;;;;;;4.80;2.40;;;;;;;14.51;72.87;96391.91;108027;1280;22550;-75
2023/07/21 02:36:47;;;;;;;4.00;2.40;;;;;;;14.48;72.81;96392.89;108023;1281;22538;-74
2023/07/21 02:39:19;;;;;;;3.00;2.30;;;;;;;14.46;72.91;96389.69;107999;1281;25412;-74
2023/07/21 02:41:51;;;;;;;4.20;2.40;;;;;;;14.48;72.88;96395.88;107980;1274;23297;-74
2023/07/21 02:44:24;;;;;;;3.40;2.50;;;;;;;14.48;72.95;96394.39;107979;1281;22574;-75
2023/07/21 02:46:56;;;;;;;3.20;2.00;;;;;;;14.49;72.92;96400.23;108006;1281;22521;-75
2023/07/21 02:49:27;;;;;;;3.10;2.20;;;;;;;14.51;72.94;96400.23;108032;1281;22585;-75
2023/07/21 02:51:59;;;;;;;4.00;2.10;;;;;;;14.52;72.83;96402.40;107960;1281;22563;-75
2023/07/21 02:54:30;;;;;;;3.10;2.10;;;;;;;14.56;72.76;96402.06;107960;1281;22547;-75
2023/07/21 02:57:04;;;;;;;4.20;2.20;;;;;;;14.62;72.67;96407.95;108001;1281;22557;-75
2023/07/21 02:59:36;;;;;;;3.90;2.10;;;;;;;14.65;72.57;96410.33;108036;1281;22530;-75
2023/07/21 03:02:09;;;;;;;2.20;2.00;;;;;;;14.65;72.46;96405.15;107980;1281;25396;-75
2023/07/21 03:04:42;;;;;;;3.50;2.00;;;;;;;14.66;72.36;96404.83;107971;1281;25508;-75
2023/07/21 03:07:16;;;;;;;2.60;2.30;;;;;;;14.68;72.38;96405.81;108150;1275;22548;-74
2023/07/21 03:09:48;;;;;;;3.40;2.10;;;;;;;14.66;72.19;96405.20;108020;1281;22524;-74
2023/07/21 03:12:19;;;;;;;2.40;1.80;;;;;;;14.62;72.38;96407.27;108028;1275;24501;-75
2023/07/21 03:14:51;;;;;;;4.30;2.30;;;;;;;14.59;72.29;96409.20;108084;1279;22527;-75
2023/07/21 03:17:21;;;;;;;3.00;2.50;;;;;;;14.54;72.30;96409.52;108029;1281;22591;-75
2023/07/21 03:19:55;;;;;;;2.80;2.30;;;;;;;14.51;72.39;96412.19;108000;1281;22763;-75
2023/07/21 03:22:26;;;;;;;2.10;2.00;;;;;;;14.50;72.43;96411.46;108010;1274;25359;-75
2023/07/21 03:24:58;;;;;;;2.40;2.00;;;;;;;14.50;72.48;96406.46;108007;1274;25420;-75
2023/07/21 03:27:29;;;;;;;2.30;2.00;;;;;;;14.51;72.49;96407.92;108059;1281;22526;-75
2023/07/21 03:30:01;;;;;;;2.40;1.90;;;;;;;14.52;72.46;96405.67;108029;1281;22579;-75
2023/07/21 03:32:34;;;;;;;2.40;2.10;;;;;;;14.52;72.39;96407.14;107967;1281;22524;-75
2023/07/21 03:35:07;;;;;;;3.70;2.50;;;;;;;14.55;72.43;96409.09;107999;1281;22538;-74
2023/07/21 03:37:38;;;;;;;2.10;1.90;;;;;;;14.57;72.50;96406.90;108002;1275;22692;-75
2023/07/21 03:40:12;;;;;;;2.50;2.30;;;;;;;14.60;72.49;96408.52;108006;1281;22538;-75
2023/07/21 03:42:43;;;;;;;3.20;2.20;;;;;;;14.62;72.56;96411.39;108007;1281;25526;-75
2023/07/21 03:45:15;;;;;;;2.80;2.10;;;;;;;14.68;72.52;96413.97;107997;1274;24006;-75
2023/07/21 03:47:46;;;;;;;2.10;1.90;;;;;;;14.69;72.31;96417.77;107994;1281;25301;-75
2023/07/21 03:50:17;;;;;;;2.60;2.40;;;;;;;14.71;72.35;96420.35;108028;1281;22546;-75
2023/07/21 03:52:52;;;;;;;2.70;1.80;;;;;;;14.73;72.32;96415.65;107998;1281;22527;-75
2023/07/21 03:55:24;;;;;;;4.60;2.20;;;;;;;14.77;72.40;96415.38;108005;1281;22560;-75
2023/07/21 03:57:56;;;;;;;3.10;2.30;;;;;;;14.79;72.37;96412.38;108010;1275;22684;-75
2023/07/21 04:00:29;;;;;;;3.80;2.40;;;;;;;14.82;72.27;96414.05;107985;1274;22524;-75
2023/07/21 04:03:02;;;;;;;3.70;2.10;;;;;;;14.87;72.23;96415.84;108067;1281;22527;-75
2023/07/21 04:05:34;;;;;;;2.50;2.20;;;;;;;14.89;72.17;96414.09;108009;1281;25367;-75
2023/07/21 04:08:10;;;;;;;2.30;1.70;;;;;;;14.88;72.07;96414.98;107995;1281;23427;-75
2023/07/21 04:10:45;;;;;;;5.60;2.30;;;;;;;14.87;72.09;96412.27;108008;1279;22523;-75
2023/07/21 04:13:16;;;;;;;3.20;2.20;;;;;;;14.88;72.19;96408.34;107974;1281;23530;-75
2023/07/21 04:15:52;;;;;;;2.70;1.90;;;;;;;14.87;72.05;96410.88;108033;1281;22527;-75
2023/07/21 04:18:25;;;;;;;2.20;2.00;;;;;;;14.87;72.05;96406.55;108072;1281;24272;-75
2023/07/21 04:20:56;;;;;;;3.90;2.20;;;;;;;14.84;71.93;96402.53;107986;1280;22527;-75
2023/07/21 04:23:27;;;;;;;2.80;1.90;;;;;;;14.81;71.97;96398.30;107994;1281;22630;-75
2023/07/21 04:26:01;;;;;;;2.80;1.90;;;;;;;14.83;71.83;96395.31;107975;1281;25302;-75
2023/07/21 04:28:33;;;;;;;4.40;2.60;;;;;;;14.88;72.02;96400.80;107995;1280;22541;-75
2023/07/21 04:31:04;;;;;;;2.30;2.10;;;;;;;14.92;71.89;96400.38;108042;1281;26462;-75
2023/07/21 04:33:39;;;;;;;3.80;2.20;;;;;;;14.96;71.87;96400.80;108007;1281;22527;-75
2023/07/21 04:36:13;;;;;;;3.00;2.30;;;;;;;15.04;72.09;96397.67;108018;1281;22540;-75
2023/07/21 04:38:44;;;;;;;7.30;4.40;;;;;;;15.08;71.79;96395.27;108045;1274;22534;-75
2023/07/21 04:41:16;;;;;;;12.00;7.30;;;;;;;15.12;71.75;96399.04;108054;1281;22535;-75
2023/07/21 04:43:48;;;;;;;2.90;2.40;;;;;;;15.21;71.98;96398.75;108012;1279;22535;-75
2023/07/21 04:46:19;;;;;;;2.90;2.40;;;;;;;15.28;71.52;96400.49;107920;1281;129981;-75
2023/07/21 04:48:53;;;;;;;3.80;2.30;;;;;;;15.35;71.69;96404.19;108008;1281;25474;-75
2023/07/21 04:51:24;;;;;;;2.60;2.20;;;;;;;15.41;71.55;96400.55;108055;1276;22522;-75
2023/07/21 04:53:55;;;;;;;2.60;2.40;;;;;;;15.47;71.47;96399.77;108026;1280;22524;-75
2023/07/21 04:56:28;;;;;;;2.70;2.10;;;;;;;15.49;71.36;96397.32;108021;1280;23369;-75
2023/07/21 04:59:00;;;;;;;2.80;2.20;;;;;;;15.55;71.35;96394.67;107973;1281;22581;-75
2023/07/21 05:01:32;;;;;;;2.40;2.10;;;;;;;15.63;71.42;96386.37;107989;1281;25982;-75
2023/07/21 05:04:04;;;;;;;2.20;2.00;;;;;;;15.70;71.35;96380.26;108026;1281;25366;-74
2023/07/21 05:06:35;;;;;;;3.20;2.80;;;;;;;15.79;71.27;96380.51;108002;1275;22532;-75
2023/07/21 05:09:07;;;;;;;4.70;2.10;;;;;;;15.89;71.31;96383.98;108038;1281;22518;-75
2023/07/21 05:11:38;;;;;;;2.10;1.90;;;;;;;15.99;71.25;96382.81;108014;1281;22530;-75
2023/07/21 05:14:11;;;;;;;2.80;2.10;;;;;;;16.12;71.10;96384.02;107995;1281;22531;-75
2023/07/21 05:16:45;;;;;;;1.80;1.70;;;;;;;16.36;70.70;96380.70;108053;1281;22528;-75
2023/07/21 05:19:17;;;;;;;2.20;2.00;;;;;;;16.58;70.16;96389.05;108000;1276;22532;-75
2023/07/21 05:21:48;;;;;;;2.70;1.70;;;;;;;16.67;69.73;96384.56;107983;1281;22524;-75
2023/07/21 05:24:19;;;;;;;2.30;2.10;;;;;;;16.73;69.45;96387.97;108031;1281;24262;-75
2023/07/21 05:26:53;;;;;;;2.80;2.00;;;;;;;16.85;69.01;96387.52;107995;1281;25341;-75
2023/07/21 05:29:24;;;;;;;2.40;1.90;;;;;;;17.00;68.86;96387.86;107996;1281;22531;-75
2023/07/21 05:31:55;;;;;;;2.40;1.90;;;;;;;17.29;68.74;96386.36;107974;1281;22521;-75
2023/07/21 05:34:27;;;;;;;4.90;2.10;;;;;;;17.73;68.97;96386.34;108009;1281;22578;-75
2023/07/21 05:36:59;;;;;;;2.90;2.00;;;;;;;18.14;68.20;96384.73;108017;1281;22562;-75
2023/07/21 05:39:31;;;;;;;2.40;2.00;;;;;;;18.37;67.98;96387.65;108046;1281;22557;-75
2023/07/21 05:42:03;;;;;;;3.80;2.20;;;;;;;18.47;67.40;96392.48;107995;1282;26329;-75
2023/07/21 05:44:37;;;;;;;3.40;2.00;;;;;;;18.39;67.15;96389.02;108048;1281;24300;-75
2023/07/21 05:47:10;;;;;;;3.20;1.90;;;;;;;18.33;66.90;96389.30;107980;1281;22546;-75
2023/07/21 05:49:44;;;;;;;1.70;1.60;;;;;;;18.24;66.54;96397.54;108032;1281;25247;-75
2023/07/21 05:52:15;;;;;;;1.90;1.60;;;;;;;18.17;66.72;96393.17;108016;1277;24404;-75
2023/07/21 05:54:46;;;;;;;4.40;2.10;;;;;;;18.16;66.79;96392.67;107986;1281;25259;-75
2023/07/21 05:57:17;;;;;;;2.70;1.90;;;;;;;18.16;66.78;96394.98;107983;1281;22524;-75
2023/07/21 05:59:53;;;;;;;2.00;1.80;;;;;;;18.18;66.74;96398.35;107986;1276;22535;-75
2023/07/21 06:02:24;;;;;;;2.70;1.90;;;;;;;18.15;66.60;96400.84;107974;1280;24768;-75
2023/07/21 06:04:59;;;;;;;2.30;2.00;;;;;;;17.99;66.16;96397.70;107865;1277;22548;-75
2023/07/21 06:07:30;;;;;;;3.90;2.10;;;;;;;17.78;66.37;96402.48;107850;1283;23105;-75
2023/07/21 06:10:02;;;;;;;2.70;2.00;;;;;;;17.67;66.27;96404.44;107807;1283;22531;-75
2023/07/21 06:12:37;;;;;;;1.70;1.60;;;;;;;17.63;66.44;96405.45;107811;1280;22513;-76
2023/07/21 06:15:11;;;;;;;2.50;2.20;;;;;;;17.51;65.91;96404.39;107891;1276;22567;-75
2023/07/21 06:17:44;;;;;;;2.20;2.00;;;;;;;17.40;66.00;96405.50;107865;1283;25331;-75
2023/07/21 06:20:15;;;;;;;2.10;1.90;;;;;;;17.39;66.06;96409.85;107828;1280;23832;-75
2023/07/21 06:22:49;;;;;;;2.30;2.10;;;;;;;17.45;66.20;96405.95;107823;1280;22806;-75
2023/07/21 06:25:20;;;;;;;2.10;1.60;;;;;;;17.62;66.26;96402.05;107857;1283;22518;-75
2023/07/21 06:27:51;;;;;;;2.40;1.90;;;;;;;17.79;65.94;96402.99;107860;1283;22592;-76
2023/07/21 06:30:22;;;;;;;2.50;1.90;;;;;;;17.87;65.60;96402.92;107879;1277;22545;-75
2023/07/21 06:32:54;;;;;;;1.90;1.70;;;;;;;17.90;65.96;96403.36;107819;1283;22691;-75
2023/07/21 06:35:27;;;;;;;5.60;2.80;;;;;;;17.89;65.89;96402.42;107884;1283;22570;-75
2023/07/21 06:37:58;;;;;;;2.00;1.60;;;;;;;17.97;66.07;96402.99;107847;1277;24291;-75
2023/07/21 06:40:30;;;;;;;3.40;2.10;;;;;;;18.22;66.06;96396.55;107901;1283;22527;-75
2023/07/21 06:43:02;;;;;;;2.20;2.00;;;;;;;18.36;65.73;96391.23;107824;1283;22533;-75
2023/07/21 06:45:33;;;;;;;3.00;1.90;;;;;;;18.54;65.55;96389.80;107840;1283;25446;-75
2023/07/21 06:48:12;;;;;;;2.80;1.50;;;;;;;18.77;65.46;96394.80;107833;1283;22555;-75
2023/07/21 06:50:43;;;;;;;2.70;1.80;;;;;;;19.05;64.75;96394.41;107871;1283;24300;-75
2023/07/21 06:53:17;;;;;;;2.50;1.80;;;;;;;19.29;64.55;96396.45;107819;1283;22574;-76
2023/07/21 06:55:51;;;;;;;3.60;2.20;;;;;;;19.50;63.97;96402.39;107875;1283;22530;-75
2023/07/21 06:58:23;;;;;;;2.70;1.60;;;;;;;19.64;63.80;96395.79;107851;1277;23991;-76
2023/07/21 07:00:57;;;;;;;1.70;1.60;;;;;;;19.64;63.18;96396.79;107863;1283;22518;-76
2023/07/21 07:03:29;;;;;;;2.40;2.20;;;;;;;19.61;62.76;96394.11;107949;1281;22522;-75
2023/07/21 07:06:02;;;;;;;2.10;1.80;;;;;;;19.58;63.03;96391.23;108116;1281;22529;-75
2023/07/21 07:08:33;;;;;;;4.40;2.10;;;;;;;19.81;63.16;96389.44;108033;1280;24279;-75
2023/07/21 07:11:04;;;;;;;2.00;1.80;;;;;;;19.94;62.45;96389.55;108026;1280;22806;-76
2023/07/21 07:13:35;;;;;;;2.60;1.80;;;;;;;20.01;62.37;96385.52;107980;1281;23878;-76
2023/07/21 07:16:06;;;;;;;3.00;1.90;;;;;;;20.51;62.80;96384.17;108010;1275;25332;-76
2023/07/21 07:18:38;;;;;;;4.30;2.20;;;;;;;21.04;62.08;96381.58;107985;1281;22537;-76
2023/07/21 07:21:09;;;;;;;4.10;2.00;;;;;;;21.43;61.26;96377.63;107986;1281;22542;-76
2023/07/21 07:23:40;;;;;;;2.30;1.80;;;;;;;21.75;60.67;96374.72;108000;1277;24231;-76
2023/07/21 07:26:12;;;;;;;3.40;2.10;;;;;;;22.01;60.37;96368.05;108028;1275;26676;-76
2023/07/21 07:28:43;;;;;;;3.00;1.70;;;;;;;22.45;60.04;96369.15;108038;1281;22539;-76
2023/07/21 07:31:15;;;;;;;3.20;2.00;;;;;;;22.93;59.75;96368.77;108029;1281;24833;-76
2023/07/21 07:33:46;;;;;;;2.00;1.60;;;;;;;23.37;59.19;96372.31;108023;1281;22983;-76
2023/07/21 07:36:18;;;;;;;3.10;1.60;;;;;;;23.66;58.44;96369.23;108006;1275;23202;-76
2023/07/21 07:38:51;;;;;;;2.50;1.80;;;;;;;23.98;58.32;96371.98;108049;1278;22534;-76
2023/07/21 07:41:23;;;;;;;3.20;1.70;;;;;;;24.35;57.50;96370.69;108051;1281;22549;-76
2023/07/21 07:43:54;;;;;;;2.90;1.90;;;;;;;24.48;56.01;96374.98;108047;1261;22524;-76
2023/07/21 07:46:28;;;;;;;1.80;1.60;;;;;;;24.25;55.09;96368.88;108019;1276;22565;-76
2023/07/21 07:48:59;;;;;;;3.50;1.70;;;;;;;23.89;54.71;96372.20;108025;1281;22574;-76
2023/07/21 07:51:33;;;;;;;4.00;2.10;;;;;;;23.62;54.83;96373.67;108051;1274;22542;-75
2023/07/21 07:54:05;;;;;;;5.40;2.00;;;;;;;23.57;55.21;96375.52;108014;1281;23367;-76
2023/07/21 07:56:36;;;;;;;5.90;2.20;;;;;;;23.73;55.49;96366.30;108066;1280;22538;-76
2023/07/21 07:59:08;;;;;;;1.90;1.60;;;;;;;24.01;55.36;96374.66;108096;1281;22745;-76
2023/07/21 08:01:40;;;;;;;2.80;1.60;;;;;;;24.39;55.07;96375.84;108103;1281;22629;-76
2023/07/21 08:04:12;;;;;;;2.50;1.80;;;;;;;24.64;55.26;96373.04;108139;1281;22566;-76
2023/07/21 08:06:44;;;;;;;3.10;1.80;;;;;;;24.72;54.44;96372.23;108060;1282;22550;-76
2023/07/21 08:09:15;;;;;;;2.10;1.60;;;;;;;24.87;54.88;96378.55;108057;1279;22525;-76
2023/07/21 08:11:49;;;;;;;4.70;1.90;;;;;;;25.20;54.57;96383.54;108012;1281;22536;-76
2023/07/21 08:14:20;;;;;;;2.00;1.60;;;;;;;25.39;53.95;96380.78;108037;1266;25445;-76
2023/07/21 08:19:41;;;;;;;3.00;1.80;;;;;;;25.71;53.37;96375.35;99411;1276;967089;-75
2023/07/21 08:22:12;;;;;;;4.00;2.00;;;;;;;25.86;54.30;96377.05;108154;1276;22990;-75
2023/07/21 08:24:44;;;;;;;2.80;2.00;;;;;;;26.08;53.96;96375.94;108249;1279;22549;-75
2023/07/21 08:27:16;;;;;;;2.70;1.80;;;;;;;26.37;54.12;96378.97;108307;1279;25335;-75
2023/07/21 08:29:49;;;;;;;3.40;1.80;;;;;;;26.51;53.68;96377.83;108306;1278;22952;-75
2023/07/21 08:32:20;;;;;;;2.60;1.90;;;;;;;26.23;52.93;96380.09;108253;1279;22801;-75
2023/07/21 08:34:52;;;;;;;2.70;2.00;;;;;;;25.93;53.44;96379.56;108322;1279;25262;-75
2023/07/21 08:37:23;;;;;;;2.00;1.80;;;;;;;25.81;53.26;96377.34;108288;1275;24253;-75
2023/07/21 08:39:57;;;;;;;3.10;1.90;;;;;;;25.68;53.76;96378.98;108287;1278;22563;-75
2023/07/21 08:42:34;;;;;;;3.40;2.10;;;;;;;25.78;53.92;96374.39;108289;1274;22536;-75
2023/07/21 08:45:07;;;;;;;2.80;2.00;;;;;;;25.81;53.86;96372.22;108305;1279;24238;-74
2023/07/21 08:47:40;;;;;;;4.40;2.20;;;;;;;25.64;53.47;96375.86;108347;1277;22568;-75
2023/07/21 08:50:19;;;;;;;3.00;2.10;;;;;;;25.42;54.15;96377.84;108282;1278;24308;-75
2023/07/21 08:52:51;;;;;;;2.50;2.20;;;;;;;25.41;54.56;96383.95;108275;1275;25337;-75
2023/07/21 08:55:25;;;;;;;3.80;2.40;;;;;;;25.28;54.05;96383.04;108253;1274;22606;-75
2023/07/21 08:58:03;;;;;;;3.60;2.20;;;;;;;24.71;53.58;96380.52;108282;1273;22658;-75
2023/07/21 09:00:35;;;;;;;5.00;2.40;;;;;;;24.34;54.28;96380.82;108299;1274;23332;-75
2023/07/21 09:03:07;;;;;;;3.90;2.00;;;;;;;24.32;55.30;96382.88;108273;1274;22887;-75
2023/07/21 09:05:46;;;;;;;3.60;2.10;;;;;;;24.47;55.69;96389.77;108292;1278;22529;-75
2023/07/21 09:08:23;;;;;;;2.40;2.10;;;;;;;24.44;55.23;96388.58;108275;1279;22500;-75
2023/07/21 09:10:57;;;;;;;3.70;2.30;;;;;;;24.42;55.44;96389.34;108291;1278;22532;-75
2023/07/21 09:13:31;;;;;;;4.90;2.50;;;;;;;24.37;54.94;96386.11;108233;1276;28852;-74
2023/07/21 09:16:05;;;;;;;3.00;2.20;;;;;;;24.10;55.01;96389.52;108280;1278;22953;-75
2023/07/21 09:18:46;;;;;;;3.20;2.30;;;;;;;24.17;55.96;96394.79;108271;1277;22534;-75
2023/07/21 09:21:23;;;;;;;4.10;2.30;;;;;;;24.28;55.96;96399.09;108289;1279;22530;-75
2023/07/21 09:24:13;;;;;;;2.70;2.20;;;;;;;24.15;54.86;96397.40;108325;1278;22528;-74
2023/07/21 09:26:50;;;;;;;4.00;2.40;;;;;;;24.03;55.55;96392.55;108323;1270;22602;-74
2023/07/21 09:29:22;;;;;;;2.90;2.10;;;;;;;23.90;54.69;96393.19;108259;1278;22551;-74
2023/07/21 09:31:54;;;;;;;2.30;2.00;;;;;;;23.55;54.53;96388.80;108304;1279;26051;-74
2023/07/21 09:34:28;;;;;;;3.70;2.30;;;;;;;23.25;54.84;96389.61;108315;1279;22524;-74
2023/07/21 09:37:07;;;;;;;2.40;2.10;;;;;;;23.05;54.80;96381.23;108293;1276;25325;-74
2023/07/21 09:39:44;;;;;;;2.90;2.20;;;;;;;22.87;54.91;96377.02;108324;1278;26833;-74
2023/07/21 09:42:19;;;;;;;4.10;2.30;;;;;;;22.77;55.35;96375.38;108264;1273;22520;-74
2023/07/21 09:44:52;;;;;;;3.00;2.70;;;;;;;22.90;56.31;96374.82;108299;1279;22608;-74
2023/07/21 09:47:24;;;;;;;3.60;2.10;;;;;;;23.08;56.13;96374.17;108291;1273;22527;-74
2023/07/21 09:49:58;;;;;;;3.00;2.50;;;;;;;23.26;56.85;96377.35;108330;1279;24297;-74
2023/07/21 09:52:37;;;;;;;3.80;2.40;;;;;;;23.30;56.35;96377.55;108274;1279;23845;-74
2023/07/21 09:55:17;;;;;;;4.80;2.40;;;;;;;23.27;56.72;96374.27;108350;1279;25268;-74
2023/07/21 09:57:51;;;;;;;4.90;2.40;;;;;;;23.24;56.08;96371.60;108275;1272;22528;-74
2023/07/21 10:00:28;;;;;;;4.80;2.80;;;;;;;23.08;55.95;96370.38;108301;1279;22535;-74
2023/07/21 10:03:00;;;;;;;4.30;2.30;;;;;;;23.01;56.42;96368.90;108302;1273;26457;-74
2023/07/21 10:05:32;;;;;;;3.20;2.50;;;;;;;23.08;56.45;96365.37;108267;1276;22533;-74
2023/07/21 10:08:05;;;;;;;3.90;2.60;;;;;;;23.01;55.82;96366.35;108303;1276;22507;-74
2023/07/21 10:10:40;;;;;;;2.80;2.50;;;;;;;22.92;56.17;96367.90;108342;1276;22685;-74
2023/07/21 10:13:19;;;;;;;4.10;2.20;;;;;;;22.90;56.89;96365.71;108296;1279;22524;-74
2023/07/21 10:15:59;;;;;;;2.60;2.10;;;;;;;22.97;57.08;96365.44;108294;1279;22525;-74
2023/07/21 10:18:30;;;;;;;4.30;2.40;;;;;;;22.96;57.26;96370.15;108323;1274;23008;-74
2023/07/21 10:21:03;;;;;;;3.40;2.40;;;;;;;22.93;57.17;96371.39;108283;1279;22567;-74
2023/07/21 10:23:39;;;;;;;2.80;2.20;;;;;;;22.87;57.44;96373.94;108292;1279;22610;-74
2023/07/21 10:26:19;;;;;;;5.60;2.50;;;;;;;22.81;57.64;96373.06;108274;1279;24226;-74
2023/07/21 10:28:51;;;;;;;3.20;2.00;;;;;;;22.72;57.63;96375.54;108324;1279;22535;-74
2023/07/21 10:31:38;;;;;;;4.60;2.50;;;;;;;22.59;57.70;96376.02;108366;1276;24243;-74
2023/07/21 10:34:17;;;;;;;3.30;2.30;;;;;;;22.49;58.50;96376.55;108270;1279;25287;-74
2023/07/21 10:37:01;;;;;;;3.40;2.40;;;;;;;22.41;58.31;96378.42;108287;1279;22548;-75
2023/07/21 10:39:34;;;;;;;4.40;2.50;;;;;;;22.34;58.59;96378.98;108339;1279;25443;-74
2023/07/21 10:42:07;;;;;;;3.20;2.20;;;;;;;22.27;58.80;96382.19;108261;1279;22558;-74
2023/07/21 10:44:46;;;;;;;6.30;2.20;;;;;;;22.19;58.70;96381.42;108311;1279;25423;-74
2023/07/21 10:47:19;;;;;;;3.10;2.30;;;;;;;22.07;58.95;96382.75;108277;1279;25365;-75
2023/07/21 10:49:53;;;;;;;3.20;2.80;;;;;;;22.02;59.57;96383.79;108298;1278;22549;-74
2023/07/21 10:52:24;;;;;;;4.20;2.70;;;;;;;21.98;60.01;96377.23;108288;1278;23031;-75
2023/07/21 10:55:00;;;;;;;3.20;2.80;;;;;;;21.97;60.32;96379.23;108312;1279;24315;-75
2023/07/21 10:57:38;;;;;;;4.90;2.90;;;;;;;21.94;60.58;96376.77;108270;1273;23361;-74
2023/07/21 11:00:12;;;;;;;4.70;2.70;;;;;;;21.93;60.98;96381.39;108315;1279;22624;-75
2023/07/21 11:02:47;;;;;;;3.60;2.40;;;;;;;21.91;61.36;96383.42;108303;1279;22837;-74
2023/07/21 11:05:20;;;;;;;3.00;2.60;;;;;;;21.91;61.49;96377.09;108315;1278;22590;-75
2023/07/21 11:07:52;;;;;;;4.10;2.80;;;;;;;21.90;61.37;96367.90;108283;1278;22550;-75
2023/07/21 11:10:32;;;;;;;4.20;2.70;;;;;;;21.92;61.61;96362.23;108294;1273;22528;-75
2023/07/21 11:13:03;;;;;;;4.20;2.70;;;;;;;21.95;61.58;96359.66;108234;1279;22532;-75
2023/07/21 11:15:38;;;;;;;4.10;2.20;;;;;;;21.97;61.53;96359.80;108280;1271;22565;-74
2023/07/21 11:18:11;;;;;;;5.40;2.70;;;;;;;22.00;61.83;96360.54;108264;1278;22551;-74
2023/07/21 11:20:43;;;;;;;4.90;3.40;;;;;;;22.01;61.85;96362.02;108241;1278;22534;-74
2023/07/21 11:23:18;;;;;;;4.90;3.00;;;;;;;22.04;61.85;96356.74;108297;1272;23332;-74
2023/07/21 11:26:08;;;;;;;5.50;3.10;;;;;;;22.03;61.84;96356.11;108270;1272;23091;-74
2023/07/21 11:28:41;;;;;;;3.50;3.00;;;;;;;21.99;61.90;96358.98;108295;1276;22541;-75
2023/07/21 11:31:18;;;;;;;5.30;2.90;;;;;;;21.97;62.04;96361.02;108268;1279;22942;-75
2023/07/21 11:33:52;;;;;;;3.60;2.50;;;;;;;21.92;61.65;96361.77;108283;1275;22535;-75
2023/07/21 11:36:24;;;;;;;4.40;2.60;;;;;;;21.89;62.13;96363.19;108292;1278;22571;-75
2023/07/21 11:39:04;;;;;;;4.10;2.40;;;;;;;21.87;62.31;96369.48;108322;1279;22536;-75
2023/07/21 11:41:51;;;;;;;5.10;1.90;;;;;;;21.81;62.44;96364.81;108246;1278;25311;-75
2023/07/21 11:44:28;;;;;;;3.70;2.40;;;;;;;21.79;62.34;96367.23;108267;1279;22770;-75
2023/07/21 11:47:05;;;;;;;3.10;2.40;;;;;;;21.77;62.43;96366.64;108280;1272;22546;-75
2023/07/21 11:49:44;;;;;;;3.10;2.60;;;;;;;21.76;62.56;96359.92;108308;1279;22535;-75
2023/07/21 11:52:25;;;;;;;4.80;2.30;;;;;;;21.76;62.42;96352.90;108261;1275;22583;-75
2023/07/21 11:55:01;;;;;;;3.20;2.40;;;;;;;21.73;62.51;96343.46;108264;1278;22582;-75